sensor_id;sensor_type;location;lat;lon;timestamp;pressure;altitude;pressure_sealevel;temperature
71897;BMP280;59767;51.344;12.362;2023-09-19T00:00:20;163569.97;;;19.00
71897;BMP280;59767;51.344;12.362;2023-09-19T00:03:25;163559.50;;;18.96
71897;BMP280;59767;51.344;12.362;2023-09-19T00:06:32;163547.69;;;18.91
71897;BMP280;59767;51.344;12.362;2023-09-19T00:09:36;163547.69;;;18.91
71897;BMP280;59767;51.344;12.362;2023-09-19T00:12:43;163541.09;;;18.89
71897;BMP280;59767;51.344;12.362;2023-09-19T00:15:48;163526.72;;;18.83
71897;BMP280;59767;51.344;12.362;2023-09-19T00:18:53;163513.56;;;18.78
71897;BMP280;59767;51.344;12.362;2023-09-19T00:21:58;163501.75;;;18.74
71897;BMP280;59767;51.344;12.362;2023-09-19T00:25:02;163496.47;;;18.72
71897;BMP280;59767;51.344;12.362;2023-09-19T00:28:06;163491.22;;;18.70
71897;BMP280;59767;51.344;12.362;2023-09-19T00:31:11;163491.22;;;18.70
71897;BMP280;59767;51.344;12.362;2023-09-19T00:34:15;163487.28;;;18.68
71897;BMP280;59767;51.344;12.362;2023-09-19T00:37:20;163470.19;;;18.62
71897;BMP280;59767;51.344;12.362;2023-09-19T00:40:24;163455.81;;;18.56
71897;BMP280;59767;51.344;12.362;2023-09-19T00:43:29;163451.84;;;18.55
71897;BMP280;59767;51.344;12.362;2023-09-19T00:46:33;163465.00;;;18.60
71897;BMP280;59767;51.344;12.362;2023-09-19T00:49:38;163459.72;;;18.58
71897;BMP280;59767;51.344;12.362;2023-09-19T00:52:43;163471.53;;;18.62
71897;BMP280;59767;51.344;12.362;2023-09-19T00:55:49;163457.16;;;18.57
71897;BMP280;59767;51.344;12.362;2023-09-19T00:58:54;163459.72;;;18.58
71897;BMP280;59767;51.344;12.362;2023-09-19T01:01:58;163455.81;;;18.56
71897;BMP280;59767;51.344;12.362;2023-09-19T01:05:04;163453.19;;;18.55
71897;BMP280;59767;51.344;12.362;2023-09-19T01:08:09;163455.81;;;18.56
71897;BMP280;59767;51.344;12.362;2023-09-19T01:11:21;163447.91;;;18.53
71897;BMP280;59767;51.344;12.362;2023-09-19T01:14:43;163433.44;;;18.48
71897;BMP280;59767;51.344;12.362;2023-09-19T01:18:04;163430.88;;;18.47
71897;BMP280;59767;51.344;12.362;2023-09-19T01:31:28;163405.91;;;18.37
71897;BMP280;59767;51.344;12.362;2023-09-19T01:37:54;163395.41;;;18.33
71897;BMP280;59767;51.344;12.362;2023-09-19T01:41:08;163379.63;;;18.27
71897;BMP280;59767;51.344;12.362;2023-09-19T01:44:21;163367.84;;;18.23
71897;BMP280;59767;51.344;12.362;2023-09-19T01:47:46;163361.31;;;18.20
71897;BMP280;59767;51.344;12.362;2023-09-19T01:50:59;163357.38;;;18.19
71897;BMP280;59767;51.344;12.362;2023-09-19T01:54:09;163361.31;;;18.20
71897;BMP280;59767;51.344;12.362;2023-09-19T01:57:22;163357.38;;;18.19
71897;BMP280;59767;51.344;12.362;2023-09-19T02:00:37;163352.06;;;18.17
71897;BMP280;59767;51.344;12.362;2023-09-19T02:03:43;163346.84;;;18.15
71897;BMP280;59767;51.344;12.362;2023-09-19T02:06:48;163342.91;;;18.13
71897;BMP280;59767;51.344;12.362;2023-09-19T02:09:52;163352.06;;;18.17
71897;BMP280;59767;51.344;12.362;2023-09-19T02:12:57;163362.56;;;18.21
71897;BMP280;59767;51.344;12.362;2023-09-19T02:16:01;163371.78;;;18.24
71897;BMP280;59767;51.344;12.362;2023-09-19T02:19:08;163386.22;;;18.30
71897;BMP280;59767;51.344;12.362;2023-09-19T02:22:12;163403.28;;;18.36
71897;BMP280;59767;51.344;12.362;2023-09-19T02:25:16;163412.44;;;18.40
71897;BMP280;59767;51.344;12.362;2023-09-19T02:28:21;163437.38;;;18.49
71897;BMP280;59767;51.344;12.362;2023-09-19T02:31:26;163462.31;;;18.59
71897;BMP280;59767;51.344;12.362;2023-09-19T02:34:33;163470.19;;;18.62
71897;BMP280;59767;51.344;12.362;2023-09-19T02:37:40;163484.66;;;18.67
71897;BMP280;59767;51.344;12.362;2023-09-19T02:40:44;163483.31;;;18.67
71897;BMP280;59767;51.344;12.362;2023-09-19T02:43:48;163484.66;;;18.67
71897;BMP280;59767;51.344;12.362;2023-09-19T02:46:52;163492.56;;;18.70
71897;BMP280;59767;51.344;12.362;2023-09-19T02:49:57;163487.28;;;18.68
71897;BMP280;59767;51.344;12.362;2023-09-19T02:53:01;163483.31;;;18.67
71897;BMP280;59767;51.344;12.362;2023-09-19T02:56:07;163488.63;;;18.69
71897;BMP280;59767;51.344;12.362;2023-09-19T02:59:11;163483.31;;;18.67
71897;BMP280;59767;51.344;12.362;2023-09-19T03:02:15;163478.13;;;18.65
71897;BMP280;59767;51.344;12.362;2023-09-19T03:05:21;163472.84;;;18.63
71897;BMP280;59767;51.344;12.362;2023-09-19T03:08:25;163479.41;;;18.65
71897;BMP280;59767;51.344;12.362;2023-09-19T03:11:30;163499.09;;;18.73
71897;BMP280;59767;51.344;12.362;2023-09-19T03:14:34;163504.38;;;18.75
71897;BMP280;59767;51.344;12.362;2023-09-19T03:17:43;163509.59;;;18.77
71897;BMP280;59767;51.344;12.362;2023-09-19T03:20:54;163522.75;;;18.82
71897;BMP280;59767;51.344;12.362;2023-09-19T03:23:59;163514.91;;;18.79
71897;BMP280;59767;51.344;12.362;2023-09-19T03:27:03;163517.47;;;18.80
71897;BMP280;59767;51.344;12.362;2023-09-19T03:30:08;163501.75;;;18.74
71897;BMP280;59767;51.344;12.362;2023-09-19T03:33:13;163501.75;;;18.74
71897;BMP280;59767;51.344;12.362;2023-09-19T03:36:17;163497.81;;;18.72
71897;BMP280;59767;51.344;12.362;2023-09-19T03:39:21;163492.56;;;18.70
71897;BMP280;59767;51.344;12.362;2023-09-19T03:42:25;163475.47;;;18.64
71897;BMP280;59767;51.344;12.362;2023-09-19T03:45:30;163472.84;;;18.63
71897;BMP280;59767;51.344;12.362;2023-09-19T03:48:34;163467.63;;;18.61
71897;BMP280;59767;51.344;12.362;2023-09-19T03:51:38;163466.28;;;18.60
71897;BMP280;59767;51.344;12.362;2023-09-19T03:54:45;163455.81;;;18.56
71897;BMP280;59767;51.344;12.362;2023-09-19T03:57:49;163461.03;;;18.58
71897;BMP280;59767;51.344;12.362;2023-09-19T04:00:57;163442.66;;;18.51
71897;BMP280;59767;51.344;12.362;2023-09-19T04:04:02;163445.28;;;18.52
71897;BMP280;59767;51.344;12.362;2023-09-19T04:07:12;163446.56;;;18.53
71897;BMP280;59767;51.344;12.362;2023-09-19T04:10:16;163451.84;;;18.55
71897;BMP280;59767;51.344;12.362;2023-09-19T04:13:21;163438.72;;;18.50
71897;BMP280;59767;51.344;12.362;2023-09-19T04:16:25;163428.25;;;18.46
71897;BMP280;59767;51.344;12.362;2023-09-19T04:19:29;163416.38;;;18.41
71897;BMP280;59767;51.344;12.362;2023-09-19T04:22:33;163412.44;;;18.40
71897;BMP280;59767;51.344;12.362;2023-09-19T04:25:37;163424.25;;;18.44
71897;BMP280;59767;51.344;12.362;2023-09-19T04:28:41;163416.38;;;18.41
71897;BMP280;59767;51.344;12.362;2023-09-19T04:31:47;163407.25;;;18.38
71897;BMP280;59767;51.344;12.362;2023-09-19T04:34:52;163396.72;;;18.34
71897;BMP280;59767;51.344;12.362;2023-09-19T04:37:58;163388.81;;;18.31
71897;BMP280;59767;51.344;12.362;2023-09-19T04:41:02;163387.50;;;18.30
71897;BMP280;59767;51.344;12.362;2023-09-19T04:44:06;163374.34;;;18.25
71897;BMP280;59767;51.344;12.362;2023-09-19T04:47:11;163396.72;;;18.34
71897;BMP280;59767;51.344;12.362;2023-09-19T04:50:16;163380.97;;;18.28
71897;BMP280;59767;51.344;12.362;2023-09-19T04:53:21;163378.31;;;18.27
71897;BMP280;59767;51.344;12.362;2023-09-19T04:56:26;163366.50;;;18.22
71897;BMP280;59767;51.344;12.362;2023-09-19T04:59:32;163386.22;;;18.30
71897;BMP280;59767;51.344;12.362;2023-09-19T05:02:36;163382.31;;;18.28
71897;BMP280;59767;51.344;12.362;2023-09-19T05:05:41;163363.88;;;18.21
71897;BMP280;59767;51.344;12.362;2023-09-19T05:08:50;163378.31;;;18.27
71897;BMP280;59767;51.344;12.362;2023-09-19T05:11:56;163373.13;;;18.25
71897;BMP280;59767;51.344;12.362;2023-09-19T05:15:01;163349.47;;;18.16
71897;BMP280;59767;51.344;12.362;2023-09-19T05:18:07;163345.50;;;18.14
71897;BMP280;59767;51.344;12.362;2023-09-19T05:21:11;163338.94;;;18.12
71897;BMP280;59767;51.344;12.362;2023-09-19T05:24:16;163317.97;;;18.04
71897;BMP280;59767;51.344;12.362;2023-09-19T05:27:20;163307.47;;;18.00
71897;BMP280;59767;51.344;12.362;2023-09-19T05:30:26;163295.63;;;17.95
71897;BMP280;59767;51.344;12.362;2023-09-19T05:33:31;163296.97;;;17.96
71897;BMP280;59767;51.344;12.362;2023-09-19T05:36:36;163304.81;;;17.99
71897;BMP280;59767;51.344;12.362;2023-09-19T05:39:41;163300.88;;;17.97
71897;BMP280;59767;51.344;12.362;2023-09-19T05:42:46;163294.34;;;17.95
71897;BMP280;59767;51.344;12.362;2023-09-19T05:45:50;163290.41;;;17.93
71897;BMP280;59767;51.344;12.362;2023-09-19T05:49:00;163278.53;;;17.89
71897;BMP280;59767;51.344;12.362;2023-09-19T05:52:05;163281.22;;;17.90
71897;BMP280;59767;51.344;12.362;2023-09-19T05:55:10;163268.06;;;17.85
71897;BMP280;59767;51.344;12.362;2023-09-19T05:58:15;163283.81;;;17.91
71897;BMP280;59767;51.344;12.362;2023-09-19T06:01:22;163290.41;;;17.93
71897;BMP280;59767;51.344;12.362;2023-09-19T06:04:27;163295.63;;;17.95
71897;BMP280;59767;51.344;12.362;2023-09-19T06:07:32;163295.63;;;17.95
71897;BMP280;59767;51.344;12.362;2023-09-19T06:10:40;163289.06;;;17.93
71897;BMP280;59767;51.344;12.362;2023-09-19T06:13:44;163291.69;;;17.94
71897;BMP280;59767;51.344;12.362;2023-09-19T06:16:52;163289.06;;;17.93
71897;BMP280;59767;51.344;12.362;2023-09-19T06:19:58;163304.81;;;17.99
71897;BMP280;59767;51.344;12.362;2023-09-19T06:23:03;163320.56;;;18.05
71897;BMP280;59767;51.344;12.362;2023-09-19T06:26:07;163342.91;;;18.13
71897;BMP280;59767;51.344;12.362;2023-09-19T06:29:14;163359.97;;;18.20
71897;BMP280;59767;51.344;12.362;2023-09-19T06:32:19;163399.28;;;18.35
71897;BMP280;59767;51.344;12.362;2023-09-19T06:35:24;163416.38;;;18.41
71897;BMP280;59767;51.344;12.362;2023-09-19T06:38:30;163428.25;;;18.46
71897;BMP280;59767;51.344;12.362;2023-09-19T06:41:35;163453.19;;;18.55
71897;BMP280;59767;51.344;12.362;2023-09-19T06:44:39;163486.00;;;18.68
71897;BMP280;59767;51.344;12.362;2023-09-19T06:47:44;163492.56;;;18.70
71897;BMP280;59767;51.344;12.362;2023-09-19T06:50:50;163503.09;;;18.74
71897;BMP280;59767;51.344;12.362;2023-09-19T06:53:54;163529.28;;;18.84
71897;BMP280;59767;51.344;12.362;2023-09-19T06:57:01;163559.50;;;18.96
71897;BMP280;59767;51.344;12.362;2023-09-19T07:00:05;163612.00;;;19.16
71897;BMP280;59767;51.344;12.362;2023-09-19T07:03:14;163660.63;;;19.34
71897;BMP280;59767;51.344;12.362;2023-09-19T07:06:20;163702.63;;;19.50
71897;BMP280;59767;51.344;12.362;2023-09-19T07:09:24;163724.94;;;19.58
71897;BMP280;59767;51.344;12.362;2023-09-19T07:12:31;163753.84;;;19.69
71897;BMP280;59767;51.344;12.362;2023-09-19T07:15:37;163772.25;;;19.76
71897;BMP280;59767;51.344;12.362;2023-09-19T07:18:51;163774.84;;;19.77
71897;BMP280;59767;51.344;12.362;2023-09-19T07:21:55;163784.06;;;19.81
71897;BMP280;59767;51.344;12.362;2023-09-19T07:25:00;163780.09;;;19.79
71897;BMP280;59767;51.344;12.362;2023-09-19T07:28:04;163770.91;;;19.76
71897;BMP280;59767;51.344;12.362;2023-09-19T07:31:09;163742.03;;;19.65
71897;BMP280;59767;51.344;12.362;2023-09-19T07:34:14;163732.84;;;19.61
71897;BMP280;59767;51.344;12.362;2023-09-19T07:37:18;163757.75;;;19.71
71897;BMP280;59767;51.344;12.362;2023-09-19T07:40:22;163809.03;;;19.90
71897;BMP280;59767;51.344;12.362;2023-09-19T07:43:28;163824.75;;;19.96
71897;BMP280;59767;51.344;12.362;2023-09-19T07:46:32;163840.50;;;20.02
71897;BMP280;59767;51.344;12.362;2023-09-19T07:49:36;163827.41;;;19.97
71897;BMP280;59767;51.344;12.362;2023-09-19T07:52:41;163811.63;;;19.91
71897;BMP280;59767;51.344;12.362;2023-09-19T07:55:45;163814.25;;;19.92
71897;BMP280;59767;51.344;12.362;2023-09-19T07:58:52;163853.66;;;20.07
71897;BMP280;59767;51.344;12.362;2023-09-19T08:01:56;163935.09;;;20.38
71897;BMP280;59767;51.344;12.362;2023-09-19T08:05:01;163953.50;;;20.45
71897;BMP280;59767;51.344;12.362;2023-09-19T08:08:10;163961.38;;;20.48
71897;BMP280;59767;51.344;12.362;2023-09-19T08:11:16;163950.88;;;20.44
71897;BMP280;59767;51.344;12.362;2023-09-19T08:14:25;163918.06;;;20.32
71897;BMP280;59767;51.344;12.362;2023-09-19T08:17:34;163904.88;;;20.27
71897;BMP280;59767;51.344;12.362;2023-09-19T08:20:39;163856.34;;;20.08
71897;BMP280;59767;51.344;12.362;2023-09-19T08:23:46;163835.28;;;20.00
71897;BMP280;59767;51.344;12.362;2023-09-19T08:26:50;163815.53;;;19.93
71897;BMP280;59767;51.344;12.362;2023-09-19T08:29:55;163991.59;;;20.60
71897;BMP280;59767;51.344;12.362;2023-09-19T08:32:59;164155.84;;;21.22
71897;BMP280;59767;51.344;12.362;2023-09-19T08:36:06;164230.75;;;21.51
71897;BMP280;59767;51.344;12.362;2023-09-19T08:39:12;164333.25;;;21.90
71897;BMP280;59767;51.344;12.362;2023-09-19T08:42:17;164351.66;;;21.97
71897;BMP280;59767;51.344;12.362;2023-09-19T08:45:25;164312.22;;;21.82
71897;BMP280;59767;51.344;12.362;2023-09-19T08:48:33;164339.88;;;21.92
71897;BMP280;59767;51.344;12.362;2023-09-19T08:51:43;164338.53;;;21.92
71897;BMP280;59767;51.344;12.362;2023-09-19T08:54:52;164329.34;;;21.88
71897;BMP280;59767;51.344;12.362;2023-09-19T08:58:03;164239.97;;;21.54
71897;BMP280;59767;51.344;12.362;2023-09-19T09:01:09;164205.81;;;21.41
71897;BMP280;59767;51.344;12.362;2023-09-19T09:04:14;164142.72;;;21.17
71897;BMP280;59767;51.344;12.362;2023-09-19T09:07:19;164087.50;;;20.96
71897;BMP280;59767;51.344;12.362;2023-09-19T09:10:24;164079.66;;;20.93
71897;BMP280;59767;51.344;12.362;2023-09-19T09:13:29;164136.09;;;21.15
71897;BMP280;59767;51.344;12.362;2023-09-19T09:16:35;164120.34;;;21.09
71897;BMP280;59767;51.344;12.362;2023-09-19T09:19:39;164124.31;;;21.10
71897;BMP280;59767;51.344;12.362;2023-09-19T09:22:55;164150.59;;;21.20
71897;BMP280;59767;51.344;12.362;2023-09-19T09:26:04;164144.06;;;21.18
71897;BMP280;59767;51.344;12.362;2023-09-19T09:29:10;164137.44;;;21.15
71897;BMP280;59767;51.344;12.362;2023-09-19T09:35:32;164213.69;;;21.44
71897;BMP280;59767;51.344;12.362;2023-09-19T09:38:44;164217.63;;;21.46
71897;BMP280;59767;51.344;12.362;2023-09-19T09:41:49;164271.47;;;21.66
71897;BMP280;59767;51.344;12.362;2023-09-19T09:48:24;164272.81;;;21.67
71897;BMP280;59767;51.344;12.362;2023-09-19T09:51:35;164292.53;;;21.74
71897;BMP280;59767;51.344;12.362;2023-09-19T09:54:58;164249.09;;;21.58
71897;BMP280;59767;51.344;12.362;2023-09-19T09:58:18;164238.63;;;21.54
71897;BMP280;59767;51.344;12.362;2023-09-19T10:01:22;164172.94;;;21.29
71897;BMP280;59767;51.344;12.362;2023-09-19T10:04:30;164133.53;;;21.14
71897;BMP280;59767;51.344;12.362;2023-09-19T10:07:41;164138.75;;;21.16
71897;BMP280;59767;51.344;12.362;2023-09-19T10:10:51;164150.59;;;21.20
71897;BMP280;59767;51.344;12.362;2023-09-19T10:14:00;164147.97;;;21.19
71897;BMP280;59767;51.344;12.362;2023-09-19T10:17:09;164134.84;;;21.14
71897;BMP280;59767;51.344;12.362;2023-09-19T10:20:17;164123.03;;;21.10
71897;BMP280;59767;51.344;12.362;2023-09-19T10:23:38;164116.41;;;21.07
71897;BMP280;59767;51.344;12.362;2023-09-19T10:26:47;164125.59;;;21.11
71897;BMP280;59767;51.344;12.362;2023-09-19T10:29:56;164128.22;;;21.12
71897;BMP280;59767;51.344;12.362;2023-09-19T10:33:04;164113.84;;;21.06
71897;BMP280;59767;51.344;12.362;2023-09-19T10:36:10;164116.41;;;21.07
71897;BMP280;59767;51.344;12.362;2023-09-19T10:39:16;164100.66;;;21.01
71897;BMP280;59767;51.344;12.362;2023-09-19T10:42:25;164090.19;;;20.97
71897;BMP280;59767;51.344;12.362;2023-09-19T10:45:35;164080.97;;;20.94
71897;BMP280;59767;51.344;12.362;2023-09-19T10:48:42;164087.50;;;20.96
71897;BMP280;59767;51.344;12.362;2023-09-19T10:51:54;164092.81;;;20.98
71897;BMP280;59767;51.344;12.362;2023-09-19T10:55:01;164123.03;;;21.10
71897;BMP280;59767;51.344;12.362;2023-09-19T10:58:06;164137.44;;;21.15
71897;BMP280;59767;51.344;12.362;2023-09-19T11:01:18;164163.75;;;21.25
71897;BMP280;59767;51.344;12.362;2023-09-19T11:04:35;164142.72;;;21.17
71897;BMP280;59767;51.344;12.362;2023-09-19T11:07:59;164151.94;;;21.21
71897;BMP280;59767;51.344;12.362;2023-09-19T11:11:40;164174.25;;;21.29
71897;BMP280;59767;51.344;12.362;2023-09-19T11:14:45;164171.63;;;21.28
71897;BMP280;59767;51.344;12.362;2023-09-19T11:17:49;164188.69;;;21.35
71897;BMP280;59767;51.344;12.362;2023-09-19T11:24:35;164190.03;;;21.35
71897;BMP280;59767;51.344;12.362;2023-09-19T11:31:41;164190.03;;;21.35
71897;BMP280;59767;51.344;12.362;2023-09-19T11:34:45;164203.13;;;21.40
71897;BMP280;59767;51.344;12.362;2023-09-19T11:47:34;164239.97;;;21.54
71897;BMP280;59767;51.344;12.362;2023-09-19T11:50:42;164249.09;;;21.58
71897;BMP280;59767;51.344;12.362;2023-09-19T11:53:51;164253.06;;;21.59
71897;BMP280;59767;51.344;12.362;2023-09-19T11:56:55;164254.41;;;21.60
71897;BMP280;59767;51.344;12.362;2023-09-19T12:00:01;164261.00;;;21.62
71897;BMP280;59767;51.344;12.362;2023-09-19T12:03:09;164270.16;;;21.66
71897;BMP280;59767;51.344;12.362;2023-09-19T12:06:15;164288.59;;;21.73
71897;BMP280;59767;51.344;12.362;2023-09-19T12:09:20;164312.22;;;21.82
71897;BMP280;59767;51.344;12.362;2023-09-19T12:12:26;164334.59;;;21.90
71897;BMP280;59767;51.344;12.362;2023-09-19T12:15:37;164314.88;;;21.83
71897;BMP280;59767;51.344;12.362;2023-09-19T12:18:44;164337.22;;;21.91
71897;BMP280;59767;51.344;12.362;2023-09-19T12:21:54;164287.28;;;21.72
71897;BMP280;59767;51.344;12.362;2023-09-19T12:25:06;164278.06;;;21.69
71897;BMP280;59767;51.344;12.362;2023-09-19T12:28:11;164288.59;;;21.73
71897;BMP280;59767;51.344;12.362;2023-09-19T12:31:15;164288.59;;;21.73
71897;BMP280;59767;51.344;12.362;2023-09-19T12:34:26;164313.56;;;21.82
71897;BMP280;59767;51.344;12.362;2023-09-19T12:37:33;164355.63;;;21.98
71897;BMP280;59767;51.344;12.362;2023-09-19T12:40:40;164350.38;;;21.96
71897;BMP280;59767;51.344;12.362;2023-09-19T12:43:46;164326.72;;;21.87
71897;BMP280;59767;51.344;12.362;2023-09-19T12:46:50;164293.84;;;21.75
71897;BMP280;59767;51.344;12.362;2023-09-19T12:53:27;164253.06;;;21.59
71897;BMP280;59767;51.344;12.362;2023-09-19T12:56:41;164306.97;;;21.80
71897;BMP280;59767;51.344;12.362;2023-09-19T12:59:52;164331.91;;;21.89
71897;BMP280;59767;51.344;12.362;2023-09-19T13:06:15;164377.94;;;22.07
71897;BMP280;59767;51.344;12.362;2023-09-19T13:09:22;164376.66;;;22.06
71897;BMP280;59767;51.344;12.362;2023-09-19T13:12:38;164368.78;;;22.03
71897;BMP280;59767;51.344;12.362;2023-09-19T13:15:52;164399.00;;;22.15
71897;BMP280;59767;51.344;12.362;2023-09-19T13:18:57;164381.91;;;22.08
71897;BMP280;59767;51.344;12.362;2023-09-19T13:22:01;164379.28;;;22.07
71897;BMP280;59767;51.344;12.362;2023-09-19T13:25:08;164351.66;;;21.97
71897;BMP280;59767;51.344;12.362;2023-09-19T13:28:18;164334.59;;;21.90
71897;BMP280;59767;51.344;12.362;2023-09-19T13:31:22;164330.63;;;21.89
71897;BMP280;59767;51.344;12.362;2023-09-19T13:34:27;164321.41;;;21.85
71897;BMP280;59767;51.344;12.362;2023-09-19T13:37:33;164333.25;;;21.90
71897;BMP280;59767;51.344;12.362;2023-09-19T13:40:40;164366.13;;;22.02
71897;BMP280;59767;51.344;12.362;2023-09-19T13:43:46;164360.88;;;22.00
71897;BMP280;59767;51.344;12.362;2023-09-19T13:46:52;164352.94;;;21.97
71897;BMP280;59767;51.344;12.362;2023-09-19T13:49:59;164351.66;;;21.97
71897;BMP280;59767;51.344;12.362;2023-09-19T13:53:04;164360.88;;;22.00
71897;BMP280;59767;51.344;12.362;2023-09-19T13:56:08;164370.03;;;22.04
71897;BMP280;59767;51.344;12.362;2023-09-19T13:59:13;164375.31;;;22.06
71897;BMP280;59767;51.344;12.362;2023-09-19T14:02:17;164371.38;;;22.04
71897;BMP280;59767;51.344;12.362;2023-09-19T14:05:27;164387.16;;;22.10
71897;BMP280;59767;51.344;12.362;2023-09-19T14:08:32;164408.19;;;22.18
71897;BMP280;59767;51.344;12.362;2023-09-19T14:11:39;164395.03;;;22.13
71897;BMP280;59767;51.344;12.362;2023-09-19T14:14:43;164430.53;;;22.27
71897;BMP280;59767;51.344;12.362;2023-09-19T14:17:48;164441.03;;;22.31
71897;BMP280;59767;51.344;12.362;2023-09-19T14:20:53;164433.16;;;22.28
71897;BMP280;59767;51.344;12.362;2023-09-19T14:23:57;164417.41;;;22.22
71897;BMP280;59767;51.344;12.362;2023-09-19T14:27:01;164430.53;;;22.27
71897;BMP280;59767;51.344;12.362;2023-09-19T14:30:07;164430.53;;;22.27
71897;BMP280;59767;51.344;12.362;2023-09-19T14:33:12;164418.75;;;22.22
71897;BMP280;59767;51.344;12.362;2023-09-19T14:36:19;164410.81;;;22.19
71897;BMP280;59767;51.344;12.362;2023-09-19T14:39:23;164423.94;;;22.24
71897;BMP280;59767;51.344;12.362;2023-09-19T14:42:27;164430.53;;;22.27
71897;BMP280;59767;51.344;12.362;2023-09-19T14:45:32;164429.25;;;22.26
71897;BMP280;59767;51.344;12.362;2023-09-19T14:48:36;164423.94;;;22.24
71897;BMP280;59767;51.344;12.362;2023-09-19T14:51:41;164418.75;;;22.22
71897;BMP280;59767;51.344;12.362;2023-09-19T14:54:45;164389.84;;;22.11
71897;BMP280;59767;51.344;12.362;2023-09-19T14:57:50;164387.16;;;22.10
71897;BMP280;59767;51.344;12.362;2023-09-19T15:01:08;164356.97;;;21.99
71897;BMP280;59767;51.344;12.362;2023-09-19T15:04:14;164349.03;;;21.96
71897;BMP280;59767;51.344;12.362;2023-09-19T15:07:18;164325.38;;;21.87
71897;BMP280;59767;51.344;12.362;2023-09-19T15:10:23;164309.66;;;21.81
71897;BMP280;59767;51.344;12.362;2023-09-19T15:13:27;164328.00;;;21.88
71897;BMP280;59767;51.344;12.362;2023-09-19T15:16:33;164355.63;;;21.98
71897;BMP280;59767;51.344;12.362;2023-09-19T15:19:37;164351.66;;;21.97
71897;BMP280;59767;51.344;12.362;2023-09-19T15:22:42;164341.13;;;21.93
71897;BMP280;59767;51.344;12.362;2023-09-19T15:25:50;164351.66;;;21.97
71897;BMP280;59767;51.344;12.362;2023-09-19T15:28:55;164329.34;;;21.88
71897;BMP280;59767;51.344;12.362;2023-09-19T15:31:59;164330.63;;;21.89
71897;BMP280;59767;51.344;12.362;2023-09-19T15:35:07;164324.03;;;21.86
71897;BMP280;59767;51.344;12.362;2023-09-19T15:38:13;164306.97;;;21.80
71897;BMP280;59767;51.344;12.362;2023-09-19T15:41:17;164292.53;;;21.74
71897;BMP280;59767;51.344;12.362;2023-09-19T15:44:22;164259.66;;;21.62
71897;BMP280;59767;51.344;12.362;2023-09-19T15:47:27;164258.38;;;21.61
71897;BMP280;59767;51.344;12.362;2023-09-19T15:50:33;164242.56;;;21.55
71897;BMP280;59767;51.344;12.362;2023-09-19T15:53:50;164238.63;;;21.54
71897;BMP280;59767;51.344;12.362;2023-09-19T15:56:55;164228.13;;;21.50
71897;BMP280;59767;51.344;12.362;2023-09-19T15:59:59;164225.50;;;21.49
71897;BMP280;59767;51.344;12.362;2023-09-19T16:03:04;164207.09;;;21.42
71897;BMP280;59767;51.344;12.362;2023-09-19T16:06:09;164192.66;;;21.36
71897;BMP280;59767;51.344;12.362;2023-09-19T16:09:14;164169.00;;;21.27
71897;BMP280;59767;51.344;12.362;2023-09-19T16:12:18;164159.78;;;21.24
71897;BMP280;59767;51.344;12.362;2023-09-19T16:15:22;164166.38;;;21.26
71897;BMP280;59767;51.344;12.362;2023-09-19T16:18:26;164158.44;;;21.23
71897;BMP280;59767;51.344;12.362;2023-09-19T16:21:31;164134.84;;;21.14
71897;BMP280;59767;51.344;12.362;2023-09-19T16:24:35;164150.59;;;21.20
71897;BMP280;59767;51.344;12.362;2023-09-19T16:27:40;164119.06;;;21.08
71897;BMP280;59767;51.344;12.362;2023-09-19T16:30:44;164111.16;;;21.05
71897;BMP280;59767;51.344;12.362;2023-09-19T16:33:48;164105.91;;;21.03
71897;BMP280;59767;51.344;12.362;2023-09-19T16:36:52;164094.09;;;20.99
71897;BMP280;59767;51.344;12.362;2023-09-19T16:39:57;164087.50;;;20.96
71897;BMP280;59767;51.344;12.362;2023-09-19T16:43:03;164078.31;;;20.93
71897;BMP280;59767;51.344;12.362;2023-09-19T16:46:08;164078.31;;;20.93
71897;BMP280;59767;51.344;12.362;2023-09-19T16:49:15;164058.63;;;20.85
71897;BMP280;59767;51.344;12.362;2023-09-19T16:52:19;164029.72;;;20.74
71897;BMP280;59767;51.344;12.362;2023-09-19T16:55:23;164024.44;;;20.72
71897;BMP280;59767;51.344;12.362;2023-09-19T16:58:27;164021.81;;;20.71
71897;BMP280;59767;51.344;12.362;2023-09-19T17:01:33;164012.63;;;20.68
71897;BMP280;59767;51.344;12.362;2023-09-19T17:04:39;163996.88;;;20.62
71897;BMP280;59767;51.344;12.362;2023-09-19T17:07:43;163977.16;;;20.54
71897;BMP280;59767;51.344;12.362;2023-09-19T17:10:49;163956.13;;;20.46
71897;BMP280;59767;51.344;12.362;2023-09-19T17:13:53;163945.59;;;20.42
71897;BMP280;59767;51.344;12.362;2023-09-19T17:16:58;163923.28;;;20.34
71897;BMP280;59767;51.344;12.362;2023-09-19T17:20:02;163914.09;;;20.30
71897;BMP280;59767;51.344;12.362;2023-09-19T17:23:06;163904.88;;;20.27
71897;BMP280;59767;51.344;12.362;2023-09-19T17:26:12;163890.41;;;20.21
71897;BMP280;59767;51.344;12.362;2023-09-19T17:29:18;163912.75;;;20.30
71897;BMP280;59767;51.344;12.362;2023-09-19T17:32:22;163890.41;;;20.21
71897;BMP280;59767;51.344;12.362;2023-09-19T17:35:26;163869.44;;;20.13
71897;BMP280;59767;51.344;12.362;2023-09-19T17:38:30;163851.03;;;20.06
71897;BMP280;59767;51.344;12.362;2023-09-19T17:41:34;163857.56;;;20.09
71897;BMP280;59767;51.344;12.362;2023-09-19T17:44:39;163843.19;;;20.03
71897;BMP280;59767;51.344;12.362;2023-09-19T17:47:43;163811.63;;;19.91
71897;BMP280;59767;51.344;12.362;2023-09-19T17:50:47;163791.91;;;19.84
71897;BMP280;59767;51.344;12.362;2023-09-19T17:53:52;163774.84;;;19.77
71897;BMP280;59767;51.344;12.362;2023-09-19T17:56:57;163760.41;;;19.72
71897;BMP280;59767;51.344;12.362;2023-09-19T18:00:02;163746.00;;;19.66
71897;BMP280;59767;51.344;12.362;2023-09-19T18:03:09;163751.22;;;19.68
71897;BMP280;59767;51.344;12.362;2023-09-19T18:06:14;163735.47;;;19.62